Latest Weather Observations for Gabo Island

IDN60801

Issued at 7:05 pm EST Tuesday 22 July 2014 (issued every 30 minutes, with the page automatically refreshed every 10 minutes)

About weather observations | Map of weather stations | Latest weather observations for NSW | Other Formats
Station Details ID: 084016 Name: GABO ISLAND LIGHTHOUSE Lat: -37.57 Lon: 149.92 Height: 15.2 m
Data from the previous 72 hours. | See also: Recent months at Gabo Island
Date/Time
EST
Temp
°C
App
Temp
°C
Dew
Point
Rel
Hum
%
Delta-T
°C
Wind Press
QNH
hPa
Press
MSL
hPa
Rain
since 9 am
mm
Dir
 
Spd
km/h
Gust
km/h
Spd
kts
Gust
kts
22/07:00pm 11.6 7.5 8.5 81 1.5 W 20 26 11 14 1024.6 - 0.0
22/06:30pm 12.1 7.6 8.4 78 1.8 W 22 28 12 15 1024.5 - 0.0
22/06:00pm 12.2 7.2 8.1 76 2.0 W 24 28 13 15 1024.4 1024.4 0.0
22/05:30pm 12.5 6.8 8.5 76 2.0 SW 28 32 15 17 1024.1 - 0.0
22/05:00pm 13.0 6.7 8.8 75 2.1 SW 32 35 17 19 1024.0 - 0.0
22/04:30pm 13.1 6.5 8.7 74 2.2 SW 33 39 18 21 1023.7 - 0.0
22/04:00pm 13.4 6.8 8.6 73 2.4 SW 33 37 18 20 1023.7 - 0.0
22/03:30pm 13.7 7.7 8.7 72 2.5 SW 30 33 16 18 1023.6 - 0.0
22/03:00pm 13.8 8.1 8.4 70 2.7 SW 28 32 15 17 1023.5 1023.5 0.0
22/02:30pm 13.8 7.8 8.6 71 2.6 SW 30 33 16 18 1023.4 - 0.0
22/02:00pm 13.6 8.9 7.9 68 2.8 SW 22 26 12 14 1023.3 - 0.0
22/01:30pm 13.5 8.9 8.3 71 2.6 SSW 22 26 12 14 1023.5 - 0.0
22/01:00pm 14.0 11.1 8.2 68 2.9 SW 13 19 7 10 1023.8 - 0.0
22/12:30pm 14.0 10.7 8.2 68 2.9 WSW 15 17 8 9 1024.0 - 0.0
22/12:00pm 13.4 9.5 7.2 66 3.0 W 17 20 9 11 1024.5 1024.6 0.0
22/11:30am 13.2 9.3 7.2 67 2.9 W 17 20 9 11 1025.0 - 0.0
22/11:00am 12.5 8.1 6.4 66 2.9 W 19 24 10 13 1025.5 - 0.0
22/10:30am 11.9 7.4 5.9 66 2.8 W 19 22 10 12 1025.8 - 0.0
22/10:00am 11.5 7.4 6.4 71 2.4 W 17 20 9 11 1025.9 - 0.0
22/09:30am 11.0 6.9 6.0 71 2.3 W 17 22 9 12 1025.9 - 0.0
22/09:00am 10.1 5.4 6.0 76 1.9 WNW 20 24 11 13 1025.7 1025.7 0.0
22/08:30am 9.7 5.2 6.0 78 1.7 WNW 19 20 10 11 1025.4 - 0.0
22/08:00am 9.0 4.9 6.2 82 1.3 WNW 17 22 9 12 1025.1 - 0.0
22/07:30am 8.7 4.6 6.1 84 1.2 WNW 17 20 9 11 1024.9 - 0.0
22/07:00am 8.7 4.1 5.8 82 1.3 WNW 19 22 10 12 1024.6 - 0.0
22/06:30am 8.4 4.3 6.0 85 1.1 WNW 17 24 9 13 1024.3 - 0.0
22/06:00am 8.4 4.3 6.0 85 1.1 WNW 17 24 9 13 1024.1 1024.1 0.0
22/05:30am 8.2 3.7 6.0 86 1.0 WNW 19 22 10 12 1023.9 - 0.0
22/05:00am 8.2 3.8 6.4 88 0.8 WNW 19 24 10 13 1023.9 - 0.0
22/04:30am 8.3 4.3 6.6 89 0.8 W 17 20 9 11 1023.9 - 0.0
22/04:00am 8.6 4.2 6.6 87 0.9 W 19 20 10 11 1023.8 - 0.0
22/03:30am 8.8 5.2 6.9 88 0.9 WNW 15 19 8 10 1024.0 - 0.0
22/03:00am 9.2 5.6 6.8 85 1.1 WNW 15 17 8 9 1024.0 1024.0 0.0
22/02:30am 9.4 5.9 7.0 85 1.1 WNW 15 20 8 11 1024.1 - 0.0
22/02:00am 9.4 5.5 7.0 85 1.1 WNW 17 20 9 11 1024.0 - 0.0
22/01:30am 9.5 6.0 7.2 85 1.1 WNW 15 20 8 11 1024.2 - 0.0
22/01:00am 9.7 6.2 7.1 84 1.2 WNW 15 20 8 11 1024.1 - 0.0
22/12:30am 9.7 6.2 7.1 84 1.2 WNW 15 19 8 10 1024.2 - 0.0
22/12:00am 9.8 5.9 7.0 83 1.3 WNW 17 20 9 11 1024.3 1024.4 0.0
 
Date/Time
EST
Temp
°C
App
Temp
°C
Dew
Point
Rel
Hum
%
Delta-T
°C
Wind Press
QNH
hPa
Press
MSL
hPa
Rain
since 9 am
mm
Dir
 
Spd
km/h
Gust
km/h
Spd
kts
Gust
kts
21/11:30pm 9.9 6.1 7.4 84 1.2 WNW 17 20 9 11 1024.7 - 0.0
21/11:00pm 10.2 6.8 7.5 83 1.3 WNW 15 17 8 9 1024.7 - 0.0
21/10:30pm 10.3 6.9 7.6 83 1.3 NW 15 19 8 10 1024.8 - 0.0
21/10:00pm 10.5 7.2 8.0 84 1.2 NW 15 19 8 10 1024.9 - 0.0
21/09:30pm 10.6 7.6 7.7 82 1.4 WNW 13 17 7 9 1025.0 - 0.0
21/09:00pm 10.8 7.7 7.2 78 1.7 WNW 13 17 7 9 1025.1 1025.1 0.0
21/08:30pm 10.8 7.3 7.0 77 1.8 WNW 15 17 8 9 1025.1 - 0.0
21/08:00pm 10.5 7.1 7.8 83 1.3 WNW 15 17 8 9 1025.1 - 0.0
21/07:30pm 10.6 7.6 7.9 83 1.3 WNW 13 15 7 8 1025.1 - 0.0
21/07:00pm 11.0 8.1 8.3 83 1.3 WNW 13 15 7 8 1025.1 - 0.0
21/06:30pm 11.5 9.1 8.7 83 1.4 WNW 11 15 6 8 1024.9 - 0.0
21/06:00pm 11.9 10.8 6.8 71 2.4 S 2 6 1 3 1024.7 1024.6 0.0
21/05:30pm 12.1 11.0 7.1 71 2.4 SSE 2 6 1 3 1024.4 - 0.0
21/05:00pm 12.7 10.9 7.8 72 2.4 S 7 11 4 6 1024.3 - 0.0
21/04:30pm 13.0 10.8 7.7 70 2.6 S 9 11 5 6 1024.1 - 0.0
21/04:00pm 13.2 10.5 7.2 67 2.9 S 11 15 6 8 1024.1 - 0.0
21/03:30pm 13.6 10.5 7.4 66 3.0 S 13 15 7 8 1024.0 - 0.0
21/03:00pm 14.5 11.8 7.4 62 3.5 SSW 11 15 6 8 1024.0 1024.0 0.0
21/02:30pm 13.6 10.9 7.2 65 3.1 SSW 11 15 6 8 1024.0 - 0.0
21/02:00pm 13.5 10.7 7.1 65 3.1 SW 11 15 6 8 1024.0 - 0.0
21/01:30pm 13.4 10.5 6.7 64 3.2 WSW 11 13 6 7 1024.1 - 0.0
21/01:00pm 13.6 10.0 4.9 55 4.0 W 13 15 7 8 1024.4 - 0.0
21/12:30pm 13.7 9.6 4.3 53 4.3 W 15 17 8 9 1024.7 - 0.0
21/12:00pm 13.4 9.7 4.7 55 4.0 W 13 17 7 9 1025.1 1025.2 0.0
21/11:30am 13.6 10.0 5.2 57 3.9 W 13 17 7 9 1025.5 - 0.0
21/11:00am 12.8 9.2 5.2 60 3.5 W 13 15 7 8 1026.0 - 0.0
21/10:30am 13.2 9.1 4.4 55 4.0 W 15 17 8 9 1026.4 - 0.0
21/10:00am 13.0 9.2 3.9 54 4.1 WNW 13 17 7 9 1026.5 - 0.0
21/09:30am 11.6 7.3 3.4 57 3.6 NW 15 20 8 11 1026.7 - 0.0
21/09:00am 10.9 6.2 3.3 59 3.3 WNW 17 22 9 12 1026.8 1026.8 0.0
21/08:30am 10.6 6.0 3.5 61 3.1 NW 17 24 9 13 1026.5 - 0.0
21/08:00am 9.9 5.2 2.9 62 3.0 WNW 17 20 9 11 1026.5 - 0.0
21/07:30am 9.3 4.6 3.2 65 2.6 NW 17 20 9 11 1026.4 - 0.0
21/07:00am 9.1 4.8 3.2 66 2.5 WNW 15 20 8 11 1026.3 - 0.0
21/06:30am 8.8 4.1 3.4 69 2.3 WNW 17 20 9 11 1026.1 - 0.0
21/06:00am 8.8 4.6 3.7 70 2.2 WNW 15 20 8 11 1026.1 1026.1 0.0
21/05:30am 8.7 4.5 3.6 70 2.2 NW 15 17 8 9 1026.1 - 0.0
21/05:00am 9.2 5.3 3.6 68 2.4 WNW 13 17 7 9 1025.9 - 0.0
21/04:30am 10.2 6.4 3.8 64 2.8 WNW 13 17 7 9 1025.9 - 0.0
21/04:00am 10.5 6.6 3.6 62 3.0 WNW 13 20 7 11 1025.9 - 0.0
21/03:30am 10.4 6.1 3.2 61 3.1 NW 15 17 8 9 1025.9 - 0.0
21/03:00am 10.4 6.1 3.5 62 3.0 WNW 15 20 8 11 1025.9 1025.9 0.0
21/02:30am 10.6 6.4 3.8 63 3.0 WNW 15 19 8 10 1026.2 - 0.0
21/02:00am 10.4 6.3 4.3 66 2.7 WNW 15 19 8 10 1026.3 - 0.0
21/01:30am 10.1 6.1 4.7 69 2.4 WNW 15 17 8 9 1026.3 - 0.0
21/01:00am 10.0 5.9 4.6 69 2.4 WNW 15 17 8 9 1026.3 - 0.0
21/12:30am 10.1 5.7 5.0 70 2.3 W 17 20 9 11 1026.4 - 0.0
21/12:00am 10.2 5.9 5.3 71 2.2 WNW 17 22 9 12 1026.6 1026.6 0.0
 
Date/Time
EST
Temp
°C
App
Temp
°C
Dew
Point
Rel
Hum
%
Delta-T
°C
Wind Press
QNH
hPa
Press
MSL
hPa
Rain
since 9 am
mm
Dir
 
Spd
km/h
Gust
km/h
Spd
kts
Gust
kts
20/11:30pm 10.3 5.7 5.7 73 2.1 WNW 19 22 10 12 1026.6 - 0.0
20/11:00pm 10.6 6.4 5.8 72 2.2 WNW 17 22 9 12 1026.6 - 0.0
20/10:30pm 10.7 6.6 6.4 75 2.0 WNW 17 24 9 13 1026.7 - 0.0
20/10:00pm 10.7 7.1 6.9 77 1.8 WNW 15 20 8 11 1026.8 - 0.0
20/09:30pm 10.6 6.6 6.8 77 1.8 WNW 17 22 9 12 1026.9 - 0.0
20/09:00pm 10.3 6.4 6.9 79 1.6 WNW 17 20 9 11 1026.9 1026.9 0.0
20/08:30pm 10.4 6.6 7.5 82 1.4 WNW 17 20 9 11 1026.9 - 0.0
20/08:00pm 10.4 6.6 7.5 82 1.4 WNW 17 20 9 11 1026.9 - 0.0
20/07:30pm 10.9 6.5 7.6 80 1.6 W 20 26 11 14 1026.9 - 0.0
20/07:00pm 11.6 6.9 7.9 78 1.8 W 22 30 12 16 1026.7 - 0.0
20/06:30pm 11.6 7.4 7.4 75 2.0 WSW 19 26 10 14 1026.5 - 0.0
20/06:00pm 11.5 7.9 6.8 73 2.2 W 15 20 8 11 1026.2 1026.2 0.0
20/05:30pm 11.9 7.4 7.1 72 2.3 W 20 24 11 13 1026.1 - 0.0
20/05:00pm 12.3 7.3 6.4 67 2.8 W 22 28 12 15 1025.8 - 0.0
20/04:30pm 12.6 7.3 7.0 68 2.7 W 24 30 13 16 1025.6 - 0.0
20/04:00pm 13.1 7.9 7.1 67 2.9 W 24 28 13 15 1025.6 - 0.0
20/03:30pm 13.5 7.8 6.8 64 3.2 WSW 26 33 14 18 1025.5 - 0.0
20/03:00pm 14.0 8.0 7.2 63 3.3 WSW 28 33 15 18 1025.4 1025.4 0.0
20/02:30pm 14.2 8.6 7.2 63 3.4 WSW 26 33 14 18 1025.3 - 0.0
20/02:00pm 14.4 7.9 6.7 60 3.7 WSW 30 35 16 19 1025.4 - 0.0
20/01:30pm 14.5 8.6 7.3 62 3.5 WSW 28 35 15 19 1025.3 - 0.0
20/01:00pm 14.5 8.4 6.4 58 3.9 WSW 28 35 15 19 1025.6 - 0.0
20/12:30pm 14.3 8.2 6.6 60 3.7 WSW 28 35 15 19 1025.9 - 0.0
20/12:00pm 13.9 8.7 7.1 63 3.3 WSW 24 33 13 18 1026.2 1026.2 0.0
20/11:30am 13.5 7.5 7.1 65 3.1 W 28 33 15 18 1026.5 - 0.0
20/11:00am 13.5 7.2 7.5 67 2.9 WSW 30 37 16 20 1026.9 - 0.0
20/10:30am 13.0 6.3 7.2 68 2.8 W 32 37 17 20 1027.1 - 0.0
20/10:00am 11.9 5.0 6.4 69 2.6 W 32 41 17 22 1027.0 - 0.0
20/09:30am 11.7 4.2 6.1 68 2.6 W 35 43 19 23 1027.0 - 0.0
20/09:00am 11.4 4.4 6.7 73 2.2 W 33 41 18 22 1026.9 1026.8 0.2
20/08:30am 10.8 2.6 6.5 75 2.0 WSW 39 50 21 27 1026.6 - 0.2
20/08:00am 10.4 2.1 6.1 75 2.0 W 39 46 21 25 1026.4 - 0.2
20/07:30am 10.2 3.2 6.1 76 1.9 W 32 41 17 22 1026.3 - 0.2
20/07:00am 10.5 3.4 5.7 72 2.2 W 32 39 17 21 1026.1 - 0.2
20/06:30am 10.3 3.9 5.0 69 2.4 W 28 37 15 20 1025.9 - 0.2
20/06:00am 10.5 3.7 4.9 68 2.5 W 30 37 16 20 1025.5 1025.5 0.2
20/05:30am 10.6 4.2 5.3 70 2.4 W 28 37 15 20 1025.4 - 0.2
20/05:00am 10.7 3.0 5.2 69 2.5 W 35 44 19 24 1025.3 - 0.2
20/04:30am 10.7 3.0 5.4 70 2.4 W 35 44 19 24 1025.3 - 0.2
20/04:00am 10.7 3.6 6.2 74 2.1 W 33 41 18 22 1025.6 - 0.2
20/03:30am 10.3 2.9 6.9 79 1.6 W 35 44 19 24 1025.7 - 0.2
20/03:00am 10.2 2.6 7.5 83 1.3 W 37 44 20 24 1025.8 1025.8 0.2
20/02:30am 10.1 4.0 8.2 88 0.9 W 30 39 16 21 1025.9 - 0.2
20/02:00am 10.6 3.2 8.3 86 1.1 WSW 37 44 20 24 1026.1 - 0.2
20/01:30am 10.8 3.8 8.3 84 1.2 WSW 35 44 19 24 1026.1 - 0.2
20/01:00am 11.2 4.1 8.1 81 1.5 W 35 44 19 24 1026.2 - 0.2
20/12:30am 11.9 4.7 7.8 76 2.0 WSW 35 44 19 24 1026.2 - 0.2
20/12:00am 12.2 5.0 7.7 74 2.2 WSW 35 46 19 25 1026.3 1026.3 0.2
 
Date/Time
EST
Temp
°C
App
Temp
°C
Dew
Point
Rel
Hum
%
Delta-T
°C
Wind Press
QNH
hPa
Press
MSL
hPa
Rain
since 9 am
mm
Dir
 
Spd
km/h
Gust
km/h
Spd
kts
Gust
kts
19/11:30pm 11.8 6.3 7.4 74 2.1 WSW 26 37 14 20 1026.7 - 0.2
19/11:00pm 12.3 7.2 7.5 72 2.3 WSW 24 32 13 17 1026.9 - 0.2
19/10:52pm 12.4 7.7 7.7 73 2.3 WSW 22 37 12 20 1026.9 - 0.2
19/10:30pm 13.4 5.4 7.4 67 2.9 SSW 39 48 21 26 1026.8 - 0.2
19/10:00pm 13.1 4.4 6.1 62 3.3 SSW 41 50 22 27 1026.9 - 0.2
19/09:30pm 12.8 3.6 6.2 64 3.1 SSW 44 54 24 29 1026.9 - 0.2
19/09:00pm 13.1 3.1 6.3 63 3.2 SW 48 57 26 31 1026.8 1026.8 0.2
19/08:30pm 12.9 2.1 5.8 62 3.3 SW 52 65 28 35 1026.5 - 0.2
19/08:00pm 12.9 2.6 6.3 64 3.1 SW 50 61 27 33 1026.4 - 0.2
19/07:30pm 13.3 2.5 5.8 60 3.5 SW 52 61 28 33 1026.4 - 0.2

Other Formats:

Comma delimited format used in spreadsheet applications
http://www.bom.gov.au/fwo/IDN60801/IDN60801.94933.axf

JavaScript Object Notation format (JSON) in row-major order
http://www.bom.gov.au/fwo/IDN60801/IDN60801.94933.json